Strona główna
METAR-TAF:

METAR-TAF

Lotnisko :

Port lotniczy Cam Ranh

Cam Ranh, Wietnam

Szerokość geograficzna: 11-59-53N, Długość geograficzna: 109-13-10E, wysokość: 12 m

Aktualna obserwacja pogody

Raport powstał 8 godziny i 19 minut temu, godzina 14:30 UTC
Wiatr 8 kt od wschodnio-północny wschód
Temperatura 29°C
Wilgotność 84%
Ciśnienie 1012 hPa
Widzialność 10 km lub więcej
Mało chmury na wysokości 1500 ft

METAR: VVCR 061430Z 06008KT 9999 FEW015 29/26 Q1012 NOSIG

czas: 05:49 (22:49 UTC)

Prognoza

Raport powstał 5 godziny i 49 minut temu, godzina 17:00 UTC
Prognoza ważna od 06 godzina 18 UTC do 07 godzina 18 UTC
Wiatr 9 kt od wschodnio-północny wschód
Widzialność 10 km lub więcej
Mało chmury na wysokości 1500 ft

TAF: VVCR 061700Z 0618/0718 07009KT 9999 FEW015

Obserwacja i prognoza pogody dla ponad 4000 lotnisk (raport METAR i TAF).

Dostępne stacje oznaczono żółtymi i czerwonymi punktami na mapie.

Najedź kursorem aby zobaczyć nazwę stacji.

Kliknij aby zobaczyć obserwacje i prognozy pogody.

Aby zmienić mapę: kliknij na zielony przycisk z czarnym krzyżykiem, aby powiększyć; na zielony przycisk z myślnikiem, aby pomniejszyć; na zielone strzałki, aby przejść do map sąsiednich.


METAR-TAF: